Date,TemperatureHighF,TemperatureAvgF,TemperatureLowF,DewpointHighF,DewpointAvgF,DewpointLowF,HumidityHigh,HumidityAvg,HumidityLow,PressureMaxIn,PressureMinIn,WindSpeedMaxMPH,WindSpeedAvgMPH,GustSpeedMaxMPH,PrecipitationSumIn
2013-10-1,89.0,81.8,74.8,75.8,73.3,70.7,91,76,60,30.02,29.95,16,4,18,0.00
2013-10-2,82.1,78.2,74.2,78.1,75.1,72.2,96,91,82,30.06,29.96,16,2,16,3.76
2013-10-3,85.0,79.2,73.4,77.6,74.3,71.9,97,85,71,30.06,29.95,12,2,12,0.00
2013-10-4,89.0,79.4,72.1,75.8,71.8,69.0,96,79,60,30.06,29.99,14,2,14,0.00
2013-10-5,89.3,80.6,71.8,74.2,71.3,65.8,92,75,48,30.03,29.93,13,2,13,0.00
2013-10-6,90.2,80.7,72.4,75.4,72.0,68.0,97,76,54,29.97,29.87,10,1,10,0.02
2013-10-7,94.0,80.4,72.5,75.2,72.4,70.0,95,78,47,29.91,29.82,20,3,20,0.02
2013-10-8,90.8,82.5,75.1,79.7,74.9,71.6,95,79,60,29.95,29.86,13,3,13,0.02
2013-10-9,89.3,78.3,69.4,77.9,73.1,67.9,96,84,67,30.00,29.92,14,2,14,0.07
2013-10-10,89.3,79.9,72.9,74.1,71.8,68.6,95,78,55,30.01,29.94,18,3,18,0.00
2013-10-11,88.0,78.2,69.0,72.1,68.7,66.8,95,74,54,30.02,29.94,16,2,16,0.00
2013-10-12,86.5,76.7,66.5,71.1,67.4,64.3,95,74,52,30.03,29.95,11,1,11,0.00
2013-10-13,86.5,77.6,70.5,73.3,67.7,64.3,95,73,52,30.06,29.97,16,2,16,0.00
2013-10-14,87.5,77.7,68.9,70.5,67.7,63.8,93,73,49,30.02,29.91,15,2,15,0.00
2013-10-15,88.3,78.1,69.5,73.2,69.4,66.7,96,76,53,29.96,29.87,15,2,15,0.00
2013-10-16,86.1,77.9,70.1,73.3,70.2,67.9,94,78,62,29.96,29.89,14,2,14,0.00
2013-10-17,88.8,79.0,70.6,73.4,70.9,68.8,96,78,56,29.98,29.90,11,2,11,0.00
2013-10-18,88.8,79.4,70.5,73.9,71.4,68.6,96,78,57,29.99,29.91,11,2,11,0.00
2013-10-19,89.0,81.3,72.3,75.4,73.3,69.9,94,78,61,29.97,29.88,15,2,15,0.00
2013-10-20,92.7,80.8,75.8,78.2,75.3,70.1,96,84,50,29.97,29.88,13,1,13,0.91
2013-10-21,90.5,82.2,76.5,79.0,75.3,73.5,96,81,59,30.01,29.91,12,2,12,0.00
2013-10-22,89.7,81.3,73.6,77.4,75.0,72.0,96,82,61,29.98,29.85,14,2,14,0.00
2013-10-23,91.0,80.3,75.2,79.1,74.8,70.0,96,84,60,29.96,29.83,13,2,13,0.57
2013-10-24,81.7,76.6,72.5,70.8,67.5,63.8,82,74,64,30.09,29.93,15,3,15,0.01
2013-10-25,83.2,76.3,70.3,68.8,65.4,62.6,83,70,55,30.16,30.06,15,4,21,0.00
2013-10-26,84.0,76.0,68.0,67.7,63.9,60.8,88,67,51,30.15,30.05,15,3,15,0.00
2013-10-27,83.5,74.4,66.1,66.8,63.9,60.7,85,71,51,30.10,30.02,15,2,15,0.00
2013-10-28,85.0,76.2,65.8,69.2,65.0,60.8,93,70,48,30.15,30.05,14,3,14,0.00
2013-10-29,85.2,76.2,66.0,72.0,67.1,63.7,94,75,59,30.17,30.09,23,4,23,0.00
2013-10-30,84.7,79.0,73.7,69.8,67.5,64.5,79,68,54,30.18,30.08,21,5,21,0.00
2013-10-31,86.8,79.1,70.5,73.3,70.0,65.8,88,74,58,30.12,30.00,14,2,14,0.00